Time;durP1;ratioP1;P1;durP2;ratioP2;P2;SDS_P1;SDS_P2;PMS_P1;PMS_P2;Temp;Humidity;BMP_temperature;BMP_pressure;BME280_temperature;BME280_humidity;BME280_pressure;Samples;Min_cycle;Max_cycle;Signal;HPM_P1;HPM_P2
2022/03/28 00:00:57;;;;;;;4.35;3.13;;;10.30;91.90;;;;;;5091084;28;20024;-74
2022/03/28 00:03:23;;;;;;;6.00;3.58;;;10.30;92.80;;;;;;5089704;28;20460;-74
2022/03/28 00:05:49;;;;;;;4.18;2.70;;;10.20;93.20;;;;;;5071471;28;20024;-74
2022/03/28 00:08:14;;;;;;;5.30;3.03;;;10.10;93.80;;;;;;5087223;28;20111;-74
2022/03/28 00:10:40;;;;;;;5.85;2.63;;;10.00;94.30;;;;;;5090737;28;20030;-74
2022/03/28 00:13:06;;;;;;;4.57;2.47;;;10.00;94.60;;;;;;5090880;28;20028;-74
2022/03/28 00:15:32;;;;;;;4.00;2.95;;;9.90;94.80;;;;;;5082369;28;20427;-74
2022/03/28 00:17:57;;;;;;;4.63;2.50;;;9.90;93.90;;;;;;5085233;28;20082;-74
2022/03/28 00:20:24;;;;;;;3.83;2.90;;;9.80;93.20;;;;;;5088640;28;20074;-74
2022/03/28 00:22:50;;;;;;;4.18;2.97;;;9.80;93.40;;;;;;5082933;28;20046;-74
2022/03/28 00:25:15;;;;;;;3.13;2.75;;;9.80;93.30;;;;;;5090458;28;20497;-74
2022/03/28 00:27:41;;;;;;;5.30;2.85;;;9.90;93.50;;;;;;5082058;28;20024;-74
2022/03/28 00:30:08;;;;;;;4.95;3.20;;;9.90;93.30;;;;;;5090337;28;20516;-74
2022/03/28 00:32:34;;;;;;;4.70;2.88;;;9.70;93.40;;;;;;5091237;28;20082;-74
2022/03/28 00:35:00;;;;;;;4.30;2.90;;;9.70;93.20;;;;;;5090748;28;20028;-74
2022/03/28 00:37:27;;;;;;;3.97;3.10;;;9.70;93.30;;;;;;5089075;28;20024;-74
2022/03/28 00:39:53;;;;;;;5.20;2.63;;;9.70;93.60;;;;;;5082164;28;20039;-74
2022/03/28 00:42:18;;;;;;;4.97;3.05;;;9.70;94.00;;;;;;5077822;28;20016;-74
2022/03/28 00:44:44;;;;;;;4.50;3.40;;;9.50;94.80;;;;;;5087691;28;20040;-74
2022/03/28 00:47:10;;;;;;;4.18;2.90;;;9.60;95.20;;;;;;5086471;28;20513;-73
2022/03/28 00:49:36;;;;;;;6.63;3.30;;;9.40;95.60;;;;;;5084978;28;20029;-74
2022/03/28 00:52:02;;;;;;;3.00;2.65;;;9.30;95.70;;;;;;5083050;28;20052;-74
2022/03/28 00:54:28;;;;;;;5.05;3.28;;;9.20;96.30;;;;;;5089194;28;20040;-74
2022/03/28 00:56:55;;;;;;;3.55;3.05;;;9.30;96.10;;;;;;5090447;28;20069;-74
2022/03/28 00:59:21;;;;;;;4.88;3.03;;;9.30;95.80;;;;;;5071731;28;20028;-74
2022/03/28 01:01:47;;;;;;;3.83;3.20;;;9.30;95.70;;;;;;5089429;28;20442;-74
2022/03/28 01:04:14;;;;;;;4.13;2.72;;;9.30;95.30;;;;;;5089880;28;20059;-74
2022/03/28 01:06:39;;;;;;;6.63;3.65;;;9.30;95.50;;;;;;5089352;28;20050;-74
2022/03/28 01:09:06;;;;;;;5.30;3.45;;;9.40;95.20;;;;;;5085598;28;20115;-74
2022/03/28 01:11:33;;;;;;;4.35;3.47;;;9.20;95.40;;;;;;5085274;28;20131;-74
2022/03/28 01:14:00;;;;;;;8.18;3.25;;;9.40;95.30;;;;;;5090533;28;20122;-74
2022/03/28 01:18:05;;;;;;;5.53;3.20;;;9.30;95.80;;;;;;5089645;28;20097;-74
2022/03/28 01:19:23;;;;;;;5.07;3.40;;;9.20;96.00;;;;;;5089305;28;20032;-74
2022/03/28 01:21:52;;;;;;;6.72;3.00;;;9.10;95.60;;;;;;5081173;28;20510;-74
2022/03/28 01:24:18;;;;;;;4.95;3.30;;;9.20;95.50;;;;;;5082573;28;20027;-74
2022/03/28 01:26:45;;;;;;;6.32;3.00;;;9.10;95.50;;;;;;5086442;28;28816;-74
2022/03/28 01:29:13;;;;;;;4.53;3.50;;;9.00;95.10;;;;;;5091250;28;20101;-74
2022/03/28 01:31:39;;;;;;;5.13;3.22;;;8.90;95.70;;;;;;5089474;28;20027;-74
2022/03/28 01:34:06;;;;;;;6.65;4.05;;;8.90;95.40;;;;;;5084799;28;20039;-74
2022/03/28 01:36:32;;;;;;;4.85;3.28;;;8.90;95.60;;;;;;5087697;28;20028;-74
2022/03/28 01:38:57;;;;;;;7.07;3.05;;;8.90;95.70;;;;;;5088426;28;20034;-74
2022/03/28 01:41:23;;;;;;;5.38;3.50;;;8.80;95.50;;;;;;5090776;28;20024;-74
2022/03/28 01:43:49;;;;;;;5.35;3.75;;;8.50;96.00;;;;;;5088892;28;20036;-74
2022/03/28 01:46:15;;;;;;;5.13;3.40;;;8.60;95.90;;;;;;5089242;28;20024;-74
2022/03/28 01:48:41;;;;;;;4.25;3.20;;;8.80;95.80;;;;;;5080600;28;20481;-74
2022/03/28 01:51:07;;;;;;;6.68;3.58;;;8.90;95.10;;;;;;5077865;28;20190;-73
2022/03/28 01:53:33;;;;;;;4.75;3.53;;;9.10;94.90;;;;;;5088995;28;20541;-74
2022/03/28 01:55:59;;;;;;;7.05;3.47;;;8.90;95.40;;;;;;5090200;28;20032;-74
2022/03/28 01:58:25;;;;;;;6.82;3.67;;;8.90;95.70;;;;;;5089321;28;20031;-73
2022/03/28 02:00:50;;;;;;;7.88;3.70;;;8.80;95.70;;;;;;5080070;28;20054;-73
2022/03/28 02:03:16;;;;;;;9.30;3.92;;;8.70;95.80;;;;;;5089196;28;20028;-73
2022/03/28 02:05:41;;;;;;;4.95;2.95;;;8.80;95.70;;;;;;5088980;28;20028;-73
2022/03/28 02:08:08;;;;;;;5.47;3.50;;;8.50;96.20;;;;;;5090542;28;20020;-74
2022/03/28 02:10:33;;;;;;;4.72;3.30;;;8.50;96.30;;;;;;5088552;28;20068;-73
2022/03/28 02:12:59;;;;;;;5.57;3.05;;;8.40;96.30;;;;;;5088986;28;20028;-74
2022/03/28 02:15:25;;;;;;;6.60;3.17;;;8.50;95.90;;;;;;5080832;28;20020;-73
2022/03/28 02:17:51;;;;;;;4.18;3.25;;;8.60;95.60;;;;;;5088926;28;20035;-73
2022/03/28 02:20:17;;;;;;;6.28;3.72;;;8.60;95.60;;;;;;5090382;28;20024;-73
2022/03/28 02:22:44;;;;;;;8.48;3.80;;;8.70;95.60;;;;;;5088751;28;20047;-73
2022/03/28 02:25:11;;;;;;;4.55;2.90;;;8.60;95.40;;;;;;5087945;28;20055;-73
2022/03/28 02:27:39;;;;;;;4.53;3.55;;;8.60;95.80;;;;;;5088310;28;20028;-73
2022/03/28 02:30:07;;;;;;;5.18;3.40;;;8.60;95.70;;;;;;5083873;28;20024;-73
2022/03/28 02:32:33;;;;;;;5.78;3.20;;;8.60;95.60;;;;;;5086222;28;20024;-73
2022/03/28 02:34:59;;;;;;;4.50;3.20;;;8.60;95.50;;;;;;5090177;28;20032;-73
2022/03/28 02:37:25;;;;;;;4.50;3.40;;;8.50;96.10;;;;;;5079904;28;20413;-73
2022/03/28 02:39:51;;;;;;;3.60;3.10;;;8.50;96.40;;;;;;5087539;28;20512;-74
2022/03/28 02:42:16;;;;;;;4.80;3.00;;;8.30;97.30;;;;;;5088908;28;20095;-73
2022/03/28 02:44:42;;;;;;;4.32;2.83;;;8.30;97.40;;;;;;5087991;28;20559;-73
2022/03/28 02:47:08;;;;;;;3.40;2.65;;;8.30;97.90;;;;;;5090817;28;20028;-73
2022/03/28 02:49:33;;;;;;;7.68;2.95;;;8.20;97.40;;;;;;5078314;28;20725;-74
2022/03/28 02:51:59;;;;;;;4.22;2.92;;;8.20;97.80;;;;;;5081530;28;20028;-73
2022/03/28 02:54:25;;;;;;;3.70;2.70;;;8.00;97.80;;;;;;5081566;28;20032;-73
2022/03/28 02:56:50;;;;;;;4.78;2.50;;;8.00;97.90;;;;;;5091979;28;20150;-74
2022/03/28 02:59:16;;;;;;;4.63;2.90;;;8.10;97.90;;;;;;5094137;28;20024;-73
2022/03/28 03:01:44;;;;;;;10.15;2.88;;;8.10;97.50;;;;;;5092222;28;20101;-73
2022/03/28 03:04:10;;;;;;;4.30;2.92;;;8.10;97.30;;;;;;5092225;28;20073;-74
2022/03/28 03:06:35;;;;;;;5.25;3.20;;;8.10;97.60;;;;;;5091710;28;20020;-73
2022/03/28 03:09:01;;;;;;;7.00;3.40;;;8.10;98.00;;;;;;5092181;28;20698;-73
2022/03/28 03:11:27;;;;;;;5.43;3.40;;;8.00;98.20;;;;;;5090729;28;20024;-73
2022/03/28 03:13:53;;;;;;;4.25;2.55;;;7.90;98.30;;;;;;5092456;28;20405;-74
2022/03/28 03:16:19;;;;;;;4.93;2.92;;;7.90;97.90;;;;;;5091529;28;20024;-73
2022/03/28 03:18:44;;;;;;;5.45;3.42;;;8.00;97.70;;;;;;5090302;28;20420;-73
2022/03/28 03:21:10;;;;;;;5.28;3.00;;;7.90;98.10;;;;;;5085837;28;20033;-73
2022/03/28 03:23:36;;;;;;;6.03;3.15;;;7.90;98.30;;;;;;5090047;28;20107;-73
2022/03/28 03:26:02;;;;;;;4.05;2.90;;;7.80;98.50;;;;;;5075163;28;20067;-73
2022/03/28 03:28:27;;;;;;;5.18;2.65;;;7.90;98.40;;;;;;5086127;28;20485;-74
2022/03/28 03:30:53;;;;;;;3.92;2.90;;;7.80;98.40;;;;;;5082861;28;20028;-73
2022/03/28 03:33:19;;;;;;;4.95;3.03;;;7.80;98.40;;;;;;5092081;28;20031;-73
2022/03/28 03:35:45;;;;;;;4.07;3.17;;;7.70;98.70;;;;;;5091746;28;20040;-73
2022/03/28 03:38:10;;;;;;;5.80;3.35;;;7.90;98.10;;;;;;5092949;28;20398;-73
2022/03/28 03:40:36;;;;;;;3.97;2.80;;;7.80;97.90;;;;;;5091214;28;20531;-73
2022/03/28 03:43:02;;;;;;;4.97;2.67;;;7.80;97.80;;;;;;5091390;28;20055;-73
2022/03/28 03:45:28;;;;;;;4.63;2.60;;;7.80;97.90;;;;;;5090030;28;20074;-73
2022/03/28 03:47:53;;;;;;;4.30;3.30;;;7.70;98.00;;;;;;5075337;28;20548;-73
2022/03/28 03:50:19;;;;;;;5.25;2.78;;;7.70;97.70;;;;;;5082323;28;20028;-73
2022/03/28 03:52:45;;;;;;;4.88;2.88;;;7.70;97.60;;;;;;5090492;28;20612;-73
2022/03/28 03:55:11;;;;;;;5.88;3.05;;;7.70;98.10;;;;;;5090801;28;20059;-73
2022/03/28 03:57:38;;;;;;;6.78;3.45;;;7.70;98.50;;;;;;5082613;28;20059;-73
2022/03/28 04:00:05;;;;;;;3.78;2.38;;;7.50;98.90;;;;;;5086248;28;20025;-73
2022/03/28 04:02:31;;;;;;;5.22;2.60;;;7.60;98.80;;;;;;5086790;28;20027;-73
2022/03/28 04:04:57;;;;;;;5.07;2.92;;;7.50;98.90;;;;;;5084402;28;20405;-73
2022/03/28 04:07:23;;;;;;;3.75;2.72;;;7.50;99.10;;;;;;5084911;28;20028;-73
2022/03/28 04:09:48;;;;;;;3.60;2.58;;;7.50;99.20;;;;;;5086605;28;20023;-74
2022/03/28 04:12:14;;;;;;;4.70;2.75;;;7.40;99.00;;;;;;5075065;28;20406;-73
2022/03/28 04:14:40;;;;;;;6.00;3.28;;;7.40;99.70;;;;;;5073008;28;20117;-74
2022/03/28 04:17:06;;;;;;;5.28;3.17;;;7.50;99.10;;;;;;5077696;28;20128;-73
2022/03/28 04:19:32;;;;;;;4.30;2.97;;;7.60;98.90;;;;;;5087995;28;20421;-73
2022/03/28 04:21:58;;;;;;;5.40;3.00;;;7.60;98.70;;;;;;5084924;28;20557;-73
2022/03/28 04:24:23;;;;;;;3.55;2.55;;;7.60;98.70;;;;;;5090938;28;20099;-74
2022/03/28 04:26:49;;;;;;;3.97;2.75;;;7.50;99.00;;;;;;5082436;28;20119;-73
2022/03/28 04:29:15;;;;;;;5.90;2.88;;;7.60;99.00;;;;;;5074776;28;20020;-73
2022/03/28 04:31:41;;;;;;;3.88;2.50;;;7.50;99.40;;;;;;5084414;28;20024;-73
2022/03/28 04:34:07;;;;;;;5.70;3.22;;;7.50;99.50;;;;;;5077186;28;20060;-73
2022/03/28 04:36:33;;;;;;;2.92;2.60;;;7.40;99.50;;;;;;5076241;28;20063;-73
2022/03/28 04:39:00;;;;;;;3.78;2.78;;;7.20;99.50;;;;;;5085587;28;20093;-74
2022/03/28 04:41:25;;;;;;;4.72;2.80;;;7.30;99.40;;;;;;5070913;28;20131;-73
2022/03/28 04:43:51;;;;;;;4.32;3.42;;;7.30;99.30;;;;;;5071481;28;20484;-73
2022/03/28 04:46:17;;;;;;;4.38;3.13;;;7.40;99.60;;;;;;5070356;28;20032;-73
2022/03/28 04:48:43;;;;;;;4.72;2.58;;;7.30;99.90;;;;;;5072064;28;20028;-73
2022/03/28 04:51:09;;;;;;;3.40;2.63;;;7.30;99.90;;;;;;5073018;28;20505;-73
2022/03/28 04:53:35;;;;;;;4.18;3.10;;;7.30;99.60;;;;;;5087532;28;20062;-73
2022/03/28 04:56:01;;;;;;;6.70;2.83;;;7.10;99.90;;;;;;5071622;28;20589;-74
2022/03/28 04:58:26;;;;;;;4.65;3.00;;;7.10;99.50;;;;;;5069755;28;20107;-74
2022/03/28 05:00:52;;;;;;;5.75;3.10;;;7.20;99.40;;;;;;5071670;28;20039;-74
2022/03/28 05:03:19;;;;;;;4.03;2.70;;;7.10;99.30;;;;;;5073019;28;20020;-73
2022/03/28 05:05:45;;;;;;;7.10;3.03;;;7.10;99.70;;;;;;5089301;28;20066;-73
2022/03/28 05:08:11;;;;;;;3.65;2.40;;;7.10;99.80;;;;;;5088981;28;20498;-73
2022/03/28 05:10:37;;;;;;;4.43;2.83;;;6.90;99.90;;;;;;5071943;28;20032;-73
2022/03/28 05:13:02;;;;;;;3.97;3.20;;;6.90;99.90;;;;;;5080877;28;20080;-74
2022/03/28 05:15:28;;;;;;;5.00;3.20;;;6.80;99.90;;;;;;5083616;28;20111;-73
2022/03/28 05:17:54;;;;;;;4.63;2.88;;;6.80;99.90;;;;;;5070036;28;20533;-73
2022/03/28 05:20:19;;;;;;;4.82;2.97;;;6.90;99.90;;;;;;5071745;28;20525;-73
2022/03/28 05:22:45;;;;;;;4.15;2.85;;;6.90;99.90;;;;;;5076986;28;20502;-73
2022/03/28 05:25:11;;;;;;;5.20;3.25;;;6.90;99.90;;;;;;5072238;28;20020;-73
2022/03/28 05:27:47;;;;;;;7.13;3.10;;;6.90;99.90;;;;;;5078279;28;20035;-74
2022/03/28 05:30:14;;;;;;;5.15;2.83;;;7.00;99.90;;;;;;5086884;28;20025;-74
2022/03/28 05:32:42;;;;;;;5.55;3.00;;;6.80;99.90;;;;;;5088048;28;20035;-73
2022/03/28 05:35:09;;;;;;;5.85;3.40;;;6.80;99.90;;;;;;5072179;28;20115;-73
2022/03/28 05:37:35;;;;;;;3.78;2.78;;;6.70;99.90;;;;;;5071874;28;20574;-73
2022/03/28 05:40:02;;;;;;;4.47;2.92;;;6.60;99.90;;;;;;5072290;28;20103;-74
2022/03/28 05:42:28;;;;;;;4.82;2.92;;;6.50;99.90;;;;;;5075850;28;20032;-73
2022/03/28 05:44:54;;;;;;;6.45;3.30;;;6.70;99.90;;;;;;5089396;28;20093;-73
2022/03/28 05:47:19;;;;;;;5.60;3.63;;;6.80;99.90;;;;;;5074308;28;20505;-74
2022/03/28 05:49:45;;;;;;;6.13;2.85;;;6.70;99.90;;;;;;5088833;28;20016;-74
2022/03/28 05:52:11;;;;;;;7.20;3.03;;;6.60;99.90;;;;;;5087660;28;20502;-73
2022/03/28 05:54:36;;;;;;;5.20;3.38;;;6.40;99.90;;;;;;5089233;28;20174;-73
2022/03/28 05:57:05;;;;;;;4.53;2.50;;;6.50;99.90;;;;;;5084473;28;20508;-73
2022/03/28 05:59:30;;;;;;;4.55;2.83;;;6.30;99.90;;;;;;5085467;28;20028;-73
2022/03/28 06:01:56;;;;;;;6.80;3.13;;;6.70;99.90;;;;;;5090495;28;20409;-74
2022/03/28 06:04:22;;;;;;;7.05;3.08;;;6.30;99.90;;;;;;5089308;28;20101;-73
2022/03/28 06:06:48;;;;;;;7.30;3.05;;;6.40;99.90;;;;;;5085522;28;20031;-74
2022/03/28 06:09:13;;;;;;;6.30;3.15;;;6.60;99.90;;;;;;5085582;28;20513;-74
2022/03/28 06:11:39;;;;;;;4.70;2.67;;;6.80;99.90;;;;;;5087040;28;20490;-73
2022/03/28 06:14:05;;;;;;;5.03;3.28;;;6.80;99.90;;;;;;5083987;28;20497;-73
2022/03/28 06:16:31;;;;;;;6.35;3.40;;;6.80;99.90;;;;;;5089118;28;20028;-73
2022/03/28 06:18:56;;;;;;;6.25;3.30;;;6.80;99.90;;;;;;5079607;28;20040;-73
2022/03/28 06:21:22;;;;;;;7.57;3.42;;;6.90;99.90;;;;;;5075129;28;20036;-73
2022/03/28 06:23:48;;;;;;;4.88;2.90;;;7.00;99.90;;;;;;5086390;28;20044;-73
2022/03/28 06:26:14;;;;;;;7.72;3.60;;;7.20;99.90;;;;;;5089912;28;20576;-74
2022/03/28 06:28:40;;;;;;;5.20;3.13;;;7.30;99.70;;;;;;5086115;28;20078;-74
2022/03/28 06:31:07;;;;;;;6.90;3.40;;;7.20;99.90;;;;;;5078695;28;20024;-74
2022/03/28 06:33:33;;;;;;;8.48;4.15;;;7.50;99.90;;;;;;5082704;28;20074;-75
2022/03/28 06:35:59;;;;;;;6.72;3.95;;;7.70;99.70;;;;;;5075885;28;20444;-76
2022/03/28 06:38:24;;;;;;;5.95;3.97;;;7.70;99.10;;;;;;5073880;28;20047;-77
2022/03/28 06:40:50;;;;;;;7.90;4.38;;;7.60;99.60;;;;;;5076317;28;20024;-77
2022/03/28 06:43:16;;;;;;;9.40;4.10;;;7.60;99.90;;;;;;5087688;28;20024;-77
2022/03/28 06:45:42;;;;;;;6.35;3.83;;;7.80;99.90;;;;;;5091507;28;20401;-77
2022/03/28 06:48:08;;;;;;;9.30;3.92;;;8.00;99.70;;;;;;5090523;28;20028;-77
2022/03/28 06:50:34;;;;;;;6.63;4.07;;;8.10;99.50;;;;;;5093294;28;20153;-77
2022/03/28 06:53:00;;;;;;;7.30;3.88;;;8.20;99.00;;;;;;5085319;28;20012;-77
2022/03/28 06:55:26;;;;;;;7.50;4.13;;;8.30;98.70;;;;;;5088729;28;20059;-77
2022/03/28 06:57:52;;;;;;;7.78;4.30;;;8.70;98.70;;;;;;5088924;28;20031;-77
2022/03/28 07:00:18;;;;;;;9.77;4.70;;;9.10;98.90;;;;;;5085333;28;20032;-77
2022/03/28 07:02:45;;;;;;;10.82;4.28;;;9.60;98.30;;;;;;5087652;28;20082;-77
2022/03/28 07:05:12;;;;;;;8.60;5.20;;;10.10;97.40;;;;;;5074134;28;20107;-77
2022/03/28 07:07:46;;;;;;;8.88;4.78;;;11.10;96.20;;;;;;5084320;28;20119;-77
2022/03/28 07:10:13;;;;;;;6.75;4.53;;;12.90;94.30;;;;;;5083289;28;20039;-77
2022/03/28 07:12:39;;;;;;;9.35;5.88;;;14.40;92.00;;;;;;5081515;28;20116;-77
2022/03/28 07:15:07;;;;;;;9.27;5.00;;;15.30;90.70;;;;;;5091677;28;20059;-77
2022/03/28 07:17:48;;;;;;;12.00;4.78;;;15.80;86.50;;;;;;5091832;28;20020;-77
2022/03/28 07:20:14;;;;;;;12.93;5.38;;;16.10;85.60;;;;;;5078362;28;20090;-77
2022/03/28 07:22:41;;;;;;;8.77;4.93;;;16.60;83.80;;;;;;5080911;28;20025;-77
2022/03/28 07:25:08;;;;;;;8.70;4.57;;;17.40;82.40;;;;;;5079083;28;20164;-77
2022/03/28 07:27:38;;;;;;;8.73;4.97;;;17.20;80.90;;;;;;5082670;28;20039;-76
2022/03/28 07:30:04;;;;;;;10.35;4.00;;;17.80;80.00;;;;;;5077221;28;20020;-77
2022/03/28 07:32:30;;;;;;;5.35;3.85;;;17.90;79.20;;;;;;5093175;28;20073;-77
2022/03/28 07:34:56;;;;;;;7.70;3.63;;;18.80;77.80;;;;;;5090860;28;20490;-77
2022/03/28 07:37:22;;;;;;;10.50;4.00;;;19.20;78.50;;;;;;5089673;28;20028;-77
2022/03/28 07:39:48;;;;;;;7.20;3.72;;;19.30;77.60;;;;;;5080897;28;20486;-76
2022/03/28 07:42:14;;;;;;;7.07;4.60;;;19.50;76.60;;;;;;5090122;28;20039;-77
2022/03/28 07:44:41;;;;;;;7.95;3.88;;;19.20;77.60;;;;;;5085198;28;20036;-78
2022/03/28 07:47:08;;;;;;;7.10;4.35;;;19.40;76.90;;;;;;5079984;28;20153;-78
2022/03/28 07:49:35;;;;;;;7.70;4.47;;;19.80;75.90;;;;;;5077286;28;20036;-76
2022/03/28 07:52:03;;;;;;;6.00;4.32;;;19.00;76.30;;;;;;5076441;28;20016;-77
2022/03/28 07:54:29;;;;;;;8.23;4.88;;;19.00;77.20;;;;;;5078149;28;20040;-76
2022/03/28 07:56:55;;;;;;;6.13;3.72;;;19.30;77.90;;;;;;5087674;28;20064;-77
2022/03/28 07:59:21;;;;;;;7.68;4.43;;;19.70;76.90;;;;;;5082821;28;20101;-76
2022/03/28 08:01:46;;;;;;;7.07;3.78;;;19.00;78.20;;;;;;5078846;28;20033;-77
2022/03/28 08:04:12;;;;;;;8.95;4.15;;;19.00;76.00;;;;;;5090733;28;20082;-77
2022/03/28 08:06:38;;;;;;;8.18;4.32;;;19.10;77.80;;;;;;5080509;28;20032;-77
2022/03/28 08:09:04;;;;;;;10.27;4.70;;;19.10;77.40;;;;;;5089376;28;20020;-77
2022/03/28 08:11:30;;;;;;;5.85;4.13;;;18.70;76.70;;;;;;5091168;28;20523;-77
2022/03/28 08:13:56;;;;;;;9.02;4.85;;;18.60;78.10;;;;;;5077878;28;20078;-77
2022/03/28 08:16:22;;;;;;;8.73;5.00;;;18.10;77.30;;;;;;5080994;28;20113;-76
2022/03/28 08:18:48;;;;;;;9.85;4.90;;;17.90;78.20;;;;;;5081820;28;20068;-77
2022/03/28 08:21:13;;;;;;;7.72;5.00;;;17.40;78.10;;;;;;5070976;28;20611;-77
2022/03/28 08:23:40;;;;;;;9.55;4.50;;;17.70;77.50;;;;;;5074138;28;20029;-76
2022/03/28 08:26:05;;;;;;;10.95;5.68;;;17.60;78.70;;;;;;5084983;28;20016;-77
2022/03/28 08:28:32;;;;;;;8.65;4.80;;;17.90;79.10;;;;;;5081115;28;20514;-77
2022/03/28 08:30:58;;;;;;;8.90;5.60;;;18.10;78.30;;;;;;5072314;28;20025;-77
2022/03/28 08:33:24;;;;;;;8.05;5.05;;;17.80;77.90;;;;;;5077704;28;20534;-76
2022/03/28 08:35:49;;;;;;;15.93;6.18;;;17.80;77.10;;;;;;5087288;28;20020;-77
2022/03/28 08:38:15;;;;;;;11.30;5.07;;;17.50;78.20;;;;;;5083306;28;20115;-77
2022/03/28 08:40:43;;;;;;;9.45;5.07;;;18.10;79.40;;;;;;5082632;28;20489;-77
2022/03/28 08:43:09;;;;;;;8.00;5.45;;;18.50;79.50;;;;;;5080487;28;20039;-76
2022/03/28 08:45:38;;;;;;;8.52;5.30;;;18.60;78.00;;;;;;5090392;28;20029;-77
2022/03/28 08:48:06;;;;;;;10.48;5.00;;;18.10;80.50;;;;;;5073188;28;20032;-76
2022/03/28 08:50:33;;;;;;;11.93;5.18;;;18.60;78.60;;;;;;5078919;28;20107;-77
2022/03/28 08:52:59;;;;;;;9.52;4.78;;;18.10;75.10;;;;;;5088472;28;20029;-76
2022/03/28 08:55:25;;;;;;;10.38;5.50;;;17.90;77.40;;;;;;5074406;28;20050;-76
2022/03/28 08:57:51;;;;;;;12.80;5.68;;;18.00;78.10;;;;;;5074183;28;20028;-76
2022/03/28 09:00:17;;;;;;;7.88;5.53;;;18.10;75.50;;;;;;5076443;28;20028;-77
2022/03/28 09:02:45;;;;;;;10.02;5.65;;;18.50;74.20;;;;;;5089497;28;20502;-76
2022/03/28 09:05:15;;;;;;;8.52;5.28;;;18.70;74.10;;;;;;5091981;28;20028;-77
2022/03/28 09:07:42;;;;;;;8.27;5.38;;;19.20;73.90;;;;;;5073905;28;20029;-77
2022/03/28 09:10:13;;;;;;;9.60;5.55;;;19.10;72.60;;;;;;5076844;28;20417;-76
2022/03/28 09:13:05;;;;;;;10.00;5.85;;;18.60;72.20;;;;;;5072699;28;20032;-76
2022/03/28 09:15:57;;;;;;;9.15;5.10;;;19.10;73.40;;;;;;5082007;28;20501;-77
2022/03/28 09:18:31;;;;;;;9.38;5.80;;;19.40;74.30;;;;;;5087926;28;20036;-76
2022/03/28 09:21:04;;;;;;;6.55;4.72;;;19.20;72.00;;;;;;5072958;28;20028;-76
2022/03/28 09:23:35;;;;;;;10.57;5.32;;;19.40;71.50;;;;;;5075281;28;20024;-75
2022/03/28 09:26:22;;;;;;;9.77;5.30;;;19.00;71.50;;;;;;5086484;28;20024;-76
2022/03/28 09:28:58;;;;;;;8.38;5.50;;;19.10;73.00;;;;;;5072157;28;20148;-76
2022/03/28 09:31:37;;;;;;;6.43;4.65;;;19.50;73.40;;;;;;5078200;28;20116;-75
2022/03/28 09:34:09;;;;;;;8.50;4.80;;;19.70;70.90;;;;;;5081043;28;20036;-76
2022/03/28 09:36:36;;;;;;;8.15;5.10;;;19.60;69.90;;;;;;5086839;28;20157;-76
2022/03/28 09:39:04;;;;;;;5.93;4.45;;;19.90;69.40;;;;;;5088545;28;20031;-76
2022/03/28 09:41:30;;;;;;;8.02;4.78;;;19.50;71.30;;;;;;5070124;28;20051;-76
2022/03/28 09:43:57;;;;;;;11.68;5.68;;;19.50;69.00;;;;;;5077992;28;20021;-76
2022/03/28 09:46:27;;;;;;;8.00;5.47;;;19.90;70.40;;;;;;5088096;28;20097;-77
2022/03/28 09:48:53;;;;;;;9.35;4.88;;;20.10;69.60;;;;;;5076727;28;20016;-76
2022/03/28 09:51:21;;;;;;;10.60;5.20;;;20.20;70.30;;;;;;5076758;28;20524;-75
2022/03/28 09:53:48;;;;;;;8.23;4.72;;;20.20;68.90;;;;;;5069314;28;20045;-76
2022/03/28 09:56:14;;;;;;;6.10;4.63;;;20.40;69.20;;;;;;5085204;28;20040;-76
2022/03/28 09:58:50;;;;;;;10.40;5.38;;;20.10;69.30;;;;;;5086677;28;20058;-76
2022/03/28 10:01:16;;;;;;;9.27;4.82;;;20.00;68.40;;;;;;5079571;28;20058;-77
2022/03/28 10:03:44;;;;;;;10.25;4.65;;;20.00;67.50;;;;;;5073465;28;20565;-76
2022/03/28 10:06:10;;;;;;;9.57;5.18;;;20.10;69.50;;;;;;5085163;28;20036;-76
2022/03/28 10:08:37;;;;;;;12.10;6.00;;;19.80;69.20;;;;;;5084229;28;20493;-76
2022/03/28 10:11:03;;;;;;;8.05;4.57;;;19.60;67.30;;;;;;5090720;28;20103;-76
2022/03/28 10:13:30;;;;;;;10.82;5.43;;;19.90;67.90;;;;;;5080402;28;20028;-76
2022/03/28 10:15:57;;;;;;;8.10;5.13;;;19.90;69.90;;;;;;5079358;28;20024;-77
2022/03/28 10:18:27;;;;;;;10.80;5.90;;;20.20;68.80;;;;;;5087324;28;20283;-76
2022/03/28 10:20:54;;;;;;;9.52;5.60;;;19.70;66.00;;;;;;5076866;28;20028;-76
2022/03/28 10:23:26;;;;;;;10.52;5.93;;;19.60;68.50;;;;;;5076547;28;20020;-76
2022/03/28 10:25:53;;;;;;;9.27;5.90;;;19.80;68.70;;;;;;5073088;28;20025;-76
2022/03/28 10:28:20;;;;;;;8.45;5.32;;;20.00;69.70;;;;;;5075346;28;20090;-75
2022/03/28 10:30:46;;;;;;;9.60;5.13;;;19.30;67.90;;;;;;5073433;28;20051;-75
2022/03/28 10:33:20;;;;;;;10.52;6.25;;;19.60;70.00;;;;;;5074193;28;20501;-75
2022/03/28 10:36:07;;;;;;;12.40;5.25;;;19.70;68.20;;;;;;5079078;28;20028;-75
2022/03/28 10:38:33;;;;;;;9.68;5.25;;;20.20;68.60;;;;;;5086765;28;20028;-75
2022/03/28 10:41:05;;;;;;;9.48;4.85;;;20.30;69.70;;;;;;5089937;28;20498;-75
2022/03/28 10:43:33;;;;;;;12.23;5.50;;;20.30;69.60;;;;;;5075097;28;20599;-75
2022/03/28 10:46:06;;;;;;;8.65;4.45;;;20.00;69.40;;;;;;5080843;28;20052;-75
2022/03/28 10:48:51;;;;;;;7.90;5.43;;;19.60;69.20;;;;;;5085950;28;20020;-75
2022/03/28 10:51:24;;;;;;;10.98;5.18;;;19.90;72.30;;;;;;5088385;28;20047;-75
2022/03/28 10:53:54;;;;;;;10.13;5.65;;;19.80;71.10;;;;;;5070019;28;20060;-74
2022/03/28 10:56:32;;;;;;;13.85;5.22;;;19.80;67.80;;;;;;5090315;28;20060;-77
2022/03/28 10:59:07;;;;;;;13.80;5.53;;;19.80;71.10;;;;;;5074644;28;20036;-74
2022/03/28 11:01:33;;;;;;;8.38;5.45;;;19.80;67.70;;;;;;5088500;28;20064;-74
2022/03/28 11:04:01;;;;;;;12.32;5.28;;;20.10;70.80;;;;;;5080590;28;20067;-74
2022/03/28 11:06:46;;;;;;;12.57;5.25;;;20.20;68.80;;;;;;5078504;28;20078;-74
2022/03/28 11:09:12;;;;;;;13.00;5.40;;;20.30;68.60;;;;;;5069149;28;20025;-76
2022/03/28 11:12:04;;;;;;;10.23;4.30;;;20.20;71.20;;;;;;5085943;28;20516;-76
2022/03/28 11:14:52;;;;;;;8.73;4.82;;;20.20;69.70;;;;;;5068608;28;20112;-76
2022/03/28 11:17:20;;;;;;;13.30;5.07;;;20.30;71.10;;;;;;5088669;28;20104;-76
2022/03/28 11:20:09;;;;;;;8.30;4.65;;;20.20;72.80;;;;;;5081131;28;20028;-76
2022/03/28 11:22:57;;;;;;;17.60;5.97;;;20.20;71.00;;;;;;5085685;28;20039;-76
2022/03/28 11:25:28;;;;;;;11.68;5.25;;;20.30;71.00;;;;;;5085897;28;20119;-76
2022/03/28 11:28:23;;;;;;;9.40;5.40;;;19.90;70.50;;;;;;5086395;28;20513;-76
2022/03/28 11:30:55;;;;;;;10.95;5.30;;;20.10;70.60;;;;;;5070027;28;20162;-76
2022/03/28 11:33:23;;;;;;;10.52;4.95;;;20.10;70.20;;;;;;5085082;28;20023;-76
2022/03/28 11:35:58;;;;;;;15.70;6.28;;;20.40;70.00;;;;;;5086448;28;20047;-77
2022/03/28 11:38:30;;;;;;;10.18;5.65;;;20.70;68.60;;;;;;5083880;28;20174;-76
2022/03/28 11:40:57;;;;;;;10.43;5.28;;;20.70;69.90;;;;;;5092094;28;20051;-75
2022/03/28 11:43:37;;;;;;;10.90;5.85;;;20.50;69.20;;;;;;5089585;28;20152;-76
2022/03/28 11:46:13;;;;;;;13.82;5.93;;;20.30;67.30;;;;;;5088999;28;20012;-76
2022/03/28 11:48:59;;;;;;;10.70;5.45;;;20.00;67.40;;;;;;5090506;28;20017;-76
2022/03/28 11:51:28;;;;;;;11.25;5.53;;;20.20;68.80;;;;;;5083007;28;20029;-76
2022/03/28 11:53:56;;;;;;;13.57;5.50;;;20.30;69.90;;;;;;5090241;28;20044;-76
2022/03/28 11:56:29;;;;;;;6.90;5.38;;;20.50;70.80;;;;;;5093138;28;20028;-76
2022/03/28 11:59:08;;;;;;;13.60;5.28;;;20.70;69.80;;;;;;5076754;28;20029;-76
2022/03/28 12:01:36;;;;;;;8.55;5.20;;;20.60;71.00;;;;;;5074823;28;20040;-76
2022/03/28 12:04:02;;;;;;;10.95;5.03;;;20.80;70.60;;;;;;5075658;28;20028;-75
2022/03/28 12:06:38;;;;;;;10.35;5.05;;;20.80;71.60;;;;;;5082751;28;20048;-76
2022/03/28 12:09:06;;;;;;;10.82;4.93;;;20.90;69.60;;;;;;5079517;28;20099;-76
2022/03/28 12:11:35;;;;;;;9.27;5.25;;;20.80;68.80;;;;;;5089557;28;20028;-76
2022/03/28 12:14:01;;;;;;;10.50;4.90;;;20.90;70.40;;;;;;5081547;28;20016;-76
2022/03/28 12:16:27;;;;;;;10.73;5.95;;;21.00;69.30;;;;;;5091006;28;20501;-75
2022/03/28 12:18:53;;;;;;;13.07;5.65;;;21.00;70.30;;;;;;5089451;28;20055;-76
2022/03/28 12:21:20;;;;;;;16.83;6.70;;;20.80;69.60;;;;;;5072905;28;20138;-75
2022/03/28 12:23:47;;;;;;;11.15;5.53;;;20.90;71.90;;;;;;5077807;28;20047;-76
2022/03/28 12:26:13;;;;;;;8.48;5.10;;;21.00;71.60;;;;;;5081643;28;20031;-76
2022/03/28 12:28:43;;;;;;;10.73;5.63;;;20.70;68.60;;;;;;5084795;28;20024;-76
2022/03/28 12:31:09;;;;;;;8.45;5.13;;;20.70;69.60;;;;;;5083606;28;20090;-75
2022/03/28 12:33:38;;;;;;;11.05;5.68;;;20.70;70.70;;;;;;5089343;28;20032;-75
2022/03/28 12:36:08;;;;;;;10.30;5.25;;;20.90;70.80;;;;;;5089759;28;20028;-75
2022/03/28 12:38:40;;;;;;;14.85;5.72;;;20.70;70.20;;;;;;5090537;28;20024;-75
2022/03/28 12:41:10;;;;;;;13.77;6.22;;;20.80;69.10;;;;;;5090768;28;20020;-75
2022/03/28 12:43:37;;;;;;;13.70;6.35;;;20.90;70.10;;;;;;5084505;28;20024;-76
2022/03/28 12:46:06;;;;;;;20.88;7.03;;;20.80;68.10;;;;;;5084324;28;20093;-77
2022/03/28 12:48:38;;;;;;;16.50;7.00;;;21.20;68.60;;;;;;5078281;28;20364;-77
2022/03/28 12:51:05;;;;;;;13.80;5.65;;;21.30;67.80;;;;;;5081995;28;20033;-77
2022/03/28 12:53:33;;;;;;;13.63;5.88;;;21.00;65.70;;;;;;5082435;28;20013;-77